createdAt,value
2019-05-11T06:40:23.543Z,15.50
2019-05-11T06:42:54.506Z,15.80
2019-05-11T06:45:29.548Z,16.10
2019-05-11T06:48:08.233Z,16.20
2019-05-11T06:50:44.344Z,16.10
2019-05-11T06:53:22.257Z,16.20
2019-05-11T06:58:47.670Z,16.60
2019-05-11T07:01:23.942Z,16.60
2019-05-11T07:04:01.728Z,16.50
2019-05-11T07:06:38.538Z,16.80
2019-05-11T07:09:16.006Z,16.90
2019-05-11T07:11:47.503Z,17.30
2019-05-11T07:17:09.216Z,17.90
2019-05-11T07:22:28.360Z,18.20
2019-05-11T07:25:19.271Z,18.10
2019-05-11T07:27:54.603Z,18.00
2019-05-11T07:30:27.082Z,18.30
2019-05-11T07:33:02.139Z,18.40
2019-05-11T07:35:32.346Z,18.70
2019-05-11T07:38:02.078Z,18.90
2019-05-11T07:40:32.818Z,19.20
2019-05-11T07:43:04.396Z,19.20
2019-05-11T07:45:33.238Z,19.00
2019-05-11T07:48:03.864Z,18.90
2019-05-11T07:50:32.661Z,19.00
2019-05-11T07:53:01.975Z,19.20
2019-05-11T07:55:32.642Z,19.40
2019-05-11T07:58:11.162Z,19.50
2019-05-11T08:00:41.869Z,19.70
2019-05-11T08:03:11.394Z,19.60
2019-05-11T08:05:42.504Z,19.90
2019-05-11T08:08:13.925Z,20.30
2019-05-11T08:10:44.474Z,20.70
2019-05-11T08:13:13.828Z,21.00
2019-05-11T08:15:49.158Z,21.30
2019-05-11T08:18:28.168Z,21.10
2019-05-11T08:21:00.857Z,21.20
2019-05-11T08:23:33.296Z,21.20
2019-05-11T08:26:08.434Z,21.10
2019-05-11T08:28:48.580Z,21.10
2019-05-11T08:31:21.009Z,21.20
2019-05-11T08:33:53.042Z,21.10
2019-05-11T08:36:22.746Z,20.80
2019-05-11T08:41:46.070Z,20.90
2019-05-11T08:44:19.294Z,21.30
2019-05-11T08:46:52.947Z,21.60
2019-05-11T08:49:30.493Z,21.70
2019-05-11T08:52:01.143Z,21.50
2019-05-11T08:54:43.153Z,21.20
2019-05-11T08:57:14.887Z,21.00
2019-05-11T08:59:48.577Z,20.90
2019-05-11T09:02:20.156Z,20.90
2019-05-11T09:04:52.373Z,20.80
2019-05-11T09:07:35.409Z,20.90
2019-05-11T09:10:08.164Z,21.20
2019-05-11T09:12:45.532Z,21.10
2019-05-11T09:15:32.512Z,21.20
2019-05-11T09:20:42.251Z,21.30
2019-05-11T09:23:32.973Z,21.40
2019-05-11T09:26:10.632Z,21.50
2019-05-11T09:31:45.570Z,21.80
2019-05-11T09:34:18.136Z,21.90
2019-05-11T09:36:48.946Z,22.00
2019-05-11T09:39:19.905Z,21.80
2019-05-11T09:41:48.994Z,21.70
2019-05-11T09:44:18.459Z,21.50
2019-05-11T09:46:52.065Z,21.50
2019-05-11T09:52:32.354Z,21.00
2019-05-11T09:55:03.182Z,21.20
2019-05-11T10:06:28.176Z,21.40
2019-05-11T10:09:09.217Z,21.30
2019-05-11T10:11:59.033Z,21.40
2019-05-11T10:17:28.812Z,21.40
2019-05-11T10:19:58.275Z,21.60
2019-05-11T10:22:28.245Z,21.60
2019-05-11T10:24:58.381Z,21.70
2019-05-11T10:27:28.011Z,21.80
2019-05-11T10:29:58.925Z,22.00
2019-05-11T10:32:28.754Z,22.20
2019-05-11T10:34:58.432Z,22.30
2019-05-11T10:37:28.253Z,22.50
2019-05-11T10:39:57.780Z,22.80
2019-05-11T10:42:28.374Z,22.70
2019-05-11T10:44:58.310Z,22.50
2019-05-11T10:47:27.786Z,22.70
2019-05-11T10:49:57.903Z,23.20
2019-05-11T10:52:28.581Z,23.40
2019-05-11T10:54:58.620Z,23.20
2019-05-11T10:57:28.288Z,23.40
2019-05-11T10:59:58.547Z,23.50
2019-05-11T11:02:27.994Z,23.50
2019-05-11T11:04:58.753Z,23.40
2019-05-11T11:07:28.848Z,23.10
2019-05-11T11:10:01.144Z,22.80
2019-05-11T11:12:48.873Z,22.40
2019-05-11T11:15:18.277Z,21.80
2019-05-11T11:17:48.529Z,21.40
2019-05-11T11:21:05.927Z,21.30
2019-05-11T11:23:38.379Z,20.90
2019-05-11T11:26:09.410Z,20.50
2019-05-11T11:28:41.077Z,20.20
2019-05-11T11:31:10.096Z,19.90
2019-05-11T11:33:40.489Z,19.50
2019-05-11T11:36:11.346Z,19.20
2019-05-11T11:38:40.929Z,18.90
2019-05-11T11:41:09.792Z,18.80
2019-05-11T11:43:38.586Z,18.70
2019-05-11T11:46:08.390Z,18.70
2019-05-11T11:48:58.125Z,18.60
2019-05-11T11:51:28.607Z,18.60
2019-05-11T11:53:58.370Z,18.60
2019-05-11T11:56:28.413Z,18.60
2019-05-11T11:58:58.088Z,18.40
2019-05-11T12:01:28.100Z,18.00
2019-05-11T12:03:58.253Z,17.60
2019-05-11T12:06:28.000Z,17.40
2019-05-11T12:08:58.472Z,17.20
2019-05-11T12:11:28.012Z,17.00
2019-05-11T12:13:57.950Z,17.00
2019-05-11T12:16:28.139Z,17.00
2019-05-11T12:18:57.823Z,17.10
2019-05-11T12:21:49.654Z,17.20
2019-05-11T12:24:19.924Z,17.30
2019-05-11T12:27:32.547Z,17.30
2019-05-11T12:30:02.829Z,17.10
2019-05-11T12:35:22.247Z,16.80
2019-05-11T12:37:51.798Z,16.90
2019-05-11T12:40:20.838Z,16.90
2019-05-11T12:42:49.724Z,16.90
2019-05-11T12:45:23.136Z,17.10
2019-05-11T12:47:58.674Z,17.20
2019-05-11T12:50:32.976Z,17.10
2019-05-11T12:53:01.869Z,17.00
2019-05-11T12:55:30.676Z,16.70
2019-05-11T12:58:08.523Z,16.40
2019-05-11T13:00:39.281Z,16.00
2019-05-11T13:03:08.308Z,15.60
2019-05-11T13:05:38.269Z,15.30
2019-05-11T13:08:07.941Z,15.10
2019-05-11T13:10:42.607Z,14.60
2019-05-11T13:13:09.156Z,14.30
2019-05-11T13:15:38.719Z,14.20
2019-05-11T13:18:11.065Z,14.00
2019-05-11T13:20:40.188Z,13.90
2019-05-11T13:23:33.843Z,13.70
2019-05-11T13:26:04.160Z,13.50
2019-05-11T13:28:33.061Z,13.30
2019-05-11T13:31:03.132Z,13.20
2019-05-11T13:33:35.021Z,13.20
2019-05-11T13:36:04.066Z,13.20
2019-05-11T13:38:32.889Z,13.30
2019-05-11T13:41:02.387Z,13.20
2019-05-11T13:43:31.865Z,13.20
2019-05-11T13:46:00.601Z,13.20
2019-05-11T13:48:30.213Z,13.20
2019-05-11T13:51:40.603Z,13.20
2019-05-11T13:54:09.374Z,13.10
2019-05-11T13:56:38.287Z,13.10
2019-05-11T13:59:19.022Z,13.00
2019-05-11T14:01:51.827Z,13.10
2019-05-11T14:04:22.483Z,13.10
2019-05-11T14:06:51.550Z,13.20
2019-05-11T14:09:20.451Z,13.30
2019-05-11T14:15:29.272Z,13.20
2019-05-11T14:18:08.249Z,13.30
2019-05-11T14:20:58.937Z,13.40
2019-05-11T14:23:07.715Z,13.60
2019-05-11T14:26:34.504Z,13.70
2019-05-11T14:29:03.378Z,13.90
2019-05-11T14:31:32.234Z,14.10
2019-05-11T14:34:01.100Z,14.20
2019-05-11T14:36:30.113Z,14.40
2019-05-11T14:38:59.019Z,14.50
2019-05-11T14:41:37.463Z,14.60
2019-05-11T14:44:08.572Z,14.50
2019-05-11T14:46:38.452Z,14.40
2019-05-11T14:49:10.477Z,14.40
2019-05-11T14:51:41.086Z,14.40
2019-05-11T14:54:18.548Z,14.50
2019-05-11T14:56:48.122Z,14.50
2019-05-11T14:59:20.429Z,14.40
2019-05-11T15:01:49.464Z,14.30
2019-05-11T15:04:19.626Z,14.10
2019-05-11T15:06:49.724Z,14.10
2019-05-11T15:09:21.348Z,14.10
2019-05-11T15:11:52.632Z,14.10
2019-05-11T15:14:28.681Z,14.20
2019-05-11T15:17:01.096Z,14.30
2019-05-11T15:19:30.571Z,14.10
2019-05-11T15:22:03.787Z,14.00
2019-05-11T15:24:34.153Z,13.80
2019-05-11T15:27:03.237Z,13.70
2019-05-11T15:29:32.106Z,13.60
2019-05-11T15:32:01.047Z,13.70
2019-05-11T15:34:29.846Z,13.70
2019-05-11T15:36:58.647Z,13.70
2019-05-11T15:39:28.739Z,13.60
2019-05-11T15:42:09.217Z,13.60
2019-05-11T15:44:28.696Z,13.50
2019-05-11T15:46:58.316Z,13.50
2019-05-11T15:49:28.350Z,13.60
2019-05-11T15:51:58.030Z,13.60
2019-05-11T15:54:28.853Z,13.60
2019-05-11T15:56:59.710Z,13.60
2019-05-11T15:59:30.594Z,13.50
2019-05-11T16:01:58.910Z,13.30
2019-05-11T16:04:28.174Z,13.20
2019-05-11T16:07:01.695Z,13.00
2019-05-11T16:09:30.527Z,12.90
2019-05-11T16:11:59.865Z,12.80
2019-05-11T16:14:34.748Z,12.70
2019-05-11T16:17:12.449Z,12.50
2019-05-11T16:19:41.248Z,12.40
2019-05-11T16:22:10.274Z,12.40
2019-05-11T16:25:00.577Z,12.30
2019-05-11T16:27:29.743Z,12.30
2019-05-11T16:29:59.236Z,12.30
2019-05-11T16:32:28.279Z,12.30
2019-05-11T16:35:00.353Z,12.30
2019-05-11T16:37:28.989Z,12.30
2019-05-11T16:39:58.345Z,12.30
2019-05-11T16:42:30.509Z,12.30
2019-05-11T16:44:58.569Z,12.20
2019-05-11T16:47:28.511Z,12.10
2019-05-11T16:53:25.779Z,11.90
2019-05-11T16:55:57.681Z,11.90
2019-05-11T17:01:20.375Z,11.90
2019-05-11T17:03:52.829Z,11.90
2019-05-11T17:06:20.603Z,11.80
2019-05-11T17:08:52.795Z,11.70
2019-05-11T17:11:38.079Z,11.70
2019-05-11T17:14:21.905Z,11.60
2019-05-11T17:16:58.435Z,11.60
2019-05-11T17:19:42.229Z,11.50
2019-05-11T17:25:21.493Z,11.40
2019-05-11T17:27:53.765Z,11.40
2019-05-11T17:30:23.282Z,11.40
2019-05-11T17:32:55.539Z,11.30
2019-05-11T17:35:44.991Z,11.30
2019-05-11T17:38:18.524Z,11.30
2019-05-11T17:40:48.241Z,11.20
2019-05-11T17:43:20.621Z,11.20
2019-05-11T17:45:50.184Z,11.20
2019-05-11T17:48:21.191Z,11.10
2019-05-11T17:50:50.282Z,11.10
2019-05-11T17:53:19.194Z,11.10
2019-05-11T17:56:04.155Z,11.20
2019-05-11T17:58:20.804Z,11.30
2019-05-11T18:00:50.822Z,11.10
2019-05-11T18:03:19.833Z,11.00
2019-05-11T18:05:48.935Z,11.00
2019-05-11T18:08:18.791Z,10.90
2019-05-11T18:10:47.984Z,10.90
2019-05-11T18:13:17.687Z,10.90
2019-05-11T18:15:46.650Z,10.90
2019-05-11T18:18:18.387Z,10.90
2019-05-11T18:21:00.212Z,10.90
2019-05-11T18:23:29.521Z,10.90
2019-05-11T18:25:59.217Z,10.80
2019-05-11T18:34:37.609Z,10.80
2019-05-11T18:37:08.888Z,10.80
2019-05-11T18:39:44.423Z,10.80
2019-05-11T18:48:41.020Z,10.80
2019-05-11T18:51:19.016Z,10.80
2019-05-11T18:54:09.360Z,10.80
2019-05-11T18:56:38.222Z,10.80
2019-05-11T18:59:09.032Z,10.90
2019-05-11T19:01:50.455Z,10.90
2019-05-11T19:04:22.556Z,10.90
2019-05-11T19:07:12.982Z,10.90
2019-05-11T19:09:32.558Z,10.90
2019-05-11T19:12:11.279Z,10.90
2019-05-11T19:20:08.527Z,11.00
2019-05-11T19:22:40.729Z,11.00
2019-05-11T19:25:11.306Z,11.00
2019-05-11T19:30:20.576Z,11.00
2019-05-11T19:32:49.572Z,11.00
2019-05-11T19:35:20.949Z,11.00
2019-05-11T19:37:48.860Z,11.00
2019-05-11T19:40:18.879Z,11.10
2019-05-11T19:42:55.298Z,11.10
2019-05-11T19:45:25.155Z,11.10
2019-05-11T19:47:55.056Z,11.20
2019-05-11T19:50:23.987Z,11.20
2019-05-11T19:52:52.915Z,11.20
2019-05-11T19:55:22.155Z,11.10
2019-05-11T19:57:50.998Z,11.00
2019-05-11T20:00:20.849Z,10.90
2019-05-11T20:02:49.634Z,10.80
2019-05-11T20:05:18.680Z,10.70
2019-05-11T20:07:48.595Z,10.70
2019-05-11T20:10:19.117Z,10.60
2019-05-11T20:12:48.591Z,10.60
2019-05-11T20:15:18.724Z,10.50
2019-05-11T20:17:48.878Z,10.50
